Time;durP1;ratioP1;P1;durP2;ratioP2;P2;SDS_P1;SDS_P2;PMS_P1;PMS_P2;Temp;Humidity;BMP_temperature;BMP_pressure;BME280_temperature;BME280_humidity;BME280_pressure;Samples;Min_cycle;Max_cycle;Signal;HPM_P1;HPM_P2
2021/11/09 00:00:58;;;;;;;21.38;10.82;;;10.80;85.10;;;;;;4978061;28;89773;-74
2021/11/09 00:03:25;;;;;;;21.65;10.85;;;10.80;85.10;;;;;;4979563;28;88863;-74
2021/11/09 00:08:25;;;;;;;18.42;9.98;;;10.80;85.10;;;;;;4979147;28;92752;-75
2021/11/09 00:10:53;;;;;;;16.88;9.57;;;10.80;85.10;;;;;;4979434;28;88492;-74
2021/11/09 00:13:20;;;;;;;12.25;9.43;;;10.80;85.20;;;;;;4978977;28;88527;-74
2021/11/09 00:15:48;;;;;;;21.10;10.10;;;10.80;85.10;;;;;;4980288;28;88516;-74
2021/11/09 00:18:15;;;;;;;15.57;9.43;;;10.80;85.10;;;;;;4977788;28;88478;-74
2021/11/09 00:20:43;;;;;;;16.85;9.80;;;10.80;85.00;;;;;;4961990;28;91980;-74
2021/11/09 00:23:11;;;;;;;14.70;8.73;;;10.80;85.00;;;;;;4979709;28;90924;-74
2021/11/09 00:25:40;;;;;;;15.20;8.75;;;10.80;84.90;;;;;;4979807;28;87985;-74
2021/11/09 00:28:08;;;;;;;15.75;9.18;;;10.80;84.90;;;;;;4961597;28;109298;-74
2021/11/09 00:30:35;;;;;;;13.38;8.00;;;10.80;84.90;;;;;;4979735;28;88680;-74
2021/11/09 00:33:03;;;;;;;13.80;8.55;;;10.80;84.90;;;;;;4979724;28;88518;-74
2021/11/09 00:35:32;;;;;;;13.50;7.93;;;10.80;84.80;;;;;;4979662;28;88591;-74
2021/11/09 00:38:04;;;;;;;15.23;8.20;;;10.80;84.80;;;;;;4962460;28;89363;-74
2021/11/09 00:40:33;;;;;;;20.38;9.00;;;10.80;84.80;;;;;;4994907;28;89737;-74
2021/11/09 00:43:01;;;;;;;15.15;8.40;;;10.80;84.80;;;;;;4977958;28;88496;-74
2021/11/09 00:45:28;;;;;;;17.42;9.20;;;10.80;84.80;;;;;;4978946;28;96810;-74
2021/11/09 00:47:55;;;;;;;11.32;7.95;;;10.80;84.80;;;;;;4979443;28;89940;-74
2021/11/09 00:50:24;;;;;;;14.88;7.93;;;10.80;84.80;;;;;;4979167;28;88712;-74
2021/11/09 00:52:52;;;;;;;15.75;8.35;;;10.70;85.00;;;;;;4978205;28;88507;-74
2021/11/09 00:55:20;;;;;;;16.42;8.32;;;10.70;84.90;;;;;;4979156;28;87993;-74
2021/11/09 00:57:48;;;;;;;10.85;7.90;;;10.70;84.80;;;;;;4979467;28;88282;-74
2021/11/09 01:00:19;;;;;;;15.45;7.78;;;10.70;84.80;;;;;;4979086;28;88648;-74
2021/11/09 01:02:49;;;;;;;15.40;7.90;;;10.70;84.80;;;;;;4979562;28;88533;-74
2021/11/09 01:05:22;;;;;;;14.57;7.18;;;10.70;84.80;;;;;;4978895;28;87926;-74
2021/11/09 01:07:54;;;;;;;13.93;8.18;;;10.70;84.70;;;;;;4979567;28;88312;-74
2021/11/09 01:10:22;;;;;;;13.00;8.07;;;10.70;84.70;;;;;;4977212;28;90559;-74
2021/11/09 01:12:49;;;;;;;14.95;8.43;;;10.60;84.70;;;;;;4978756;28;102197;-74
2021/11/09 01:15:17;;;;;;;15.82;7.32;;;10.60;84.70;;;;;;4977557;28;88039;-74
2021/11/09 01:17:44;;;;;;;14.98;8.10;;;10.50;84.70;;;;;;4979078;28;88229;-74
2021/11/09 01:20:14;;;;;;;15.60;7.38;;;10.50;85.00;;;;;;4978741;28;88695;-74
2021/11/09 01:22:44;;;;;;;13.10;7.35;;;10.40;85.00;;;;;;4979168;28;88501;-74
2021/11/09 01:25:12;;;;;;;17.27;7.70;;;10.30;85.00;;;;;;4978925;28;87985;-74
2021/11/09 01:27:39;;;;;;;13.38;7.75;;;10.30;85.20;;;;;;4979151;28;88124;-74
2021/11/09 01:30:08;;;;;;;18.40;7.82;;;10.20;85.20;;;;;;4979049;28;88739;-73
2021/11/09 01:32:36;;;;;;;14.00;8.70;;;10.20;85.30;;;;;;4977551;28;88445;-74
2021/11/09 01:35:04;;;;;;;18.58;8.32;;;10.10;85.40;;;;;;4977904;28;104194;-74
2021/11/09 01:37:31;;;;;;;17.23;8.60;;;10.00;85.30;;;;;;4978527;28;88052;-73
2021/11/09 01:39:58;;;;;;;20.50;8.40;;;10.00;85.50;;;;;;4978844;28;88651;-74
2021/11/09 01:42:25;;;;;;;13.50;7.95;;;9.90;85.60;;;;;;4977953;28;88425;-73
2021/11/09 01:44:52;;;;;;;17.88;8.05;;;9.90;85.70;;;;;;4977259;28;89388;-73
2021/11/09 01:47:19;;;;;;;19.23;8.77;;;9.80;85.90;;;;;;4978424;28;88251;-74
2021/11/09 01:49:46;;;;;;;18.35;8.40;;;9.70;85.90;;;;;;4978780;28;88469;-74
2021/11/09 01:52:13;;;;;;;18.73;8.75;;;9.70;86.00;;;;;;4977024;28;89324;-73
2021/11/09 01:54:40;;;;;;;19.45;9.30;;;9.70;86.20;;;;;;4977492;28;88021;-73
2021/11/09 01:57:07;;;;;;;22.48;9.27;;;9.60;86.10;;;;;;4977168;28;88158;-74
2021/11/09 01:59:35;;;;;;;22.15;9.65;;;9.60;86.10;;;;;;4977266;28;107509;-74
2021/11/09 02:02:03;;;;;;;20.95;10.15;;;9.50;86.20;;;;;;4961108;28;90627;-74
2021/11/09 02:04:31;;;;;;;20.73;9.35;;;9.50;86.40;;;;;;4976131;28;89033;-73
2021/11/09 02:06:58;;;;;;;15.68;9.40;;;9.40;86.20;;;;;;4977078;28;90471;-74
2021/11/09 02:09:25;;;;;;;24.92;9.90;;;9.40;86.30;;;;;;4976680;28;90929;-74
2021/11/09 02:11:52;;;;;;;17.83;9.85;;;9.40;86.30;;;;;;4978282;28;88505;-74
2021/11/09 02:14:19;;;;;;;22.83;10.30;;;9.30;86.60;;;;;;4978166;28;88027;-73
2021/11/09 02:16:48;;;;;;;20.88;9.35;;;9.30;86.50;;;;;;4977707;28;88509;-73
2021/11/09 02:19:15;;;;;;;20.08;9.68;;;9.20;86.50;;;;;;4977908;28;88747;-74
2021/11/09 02:21:42;;;;;;;23.77;10.55;;;9.20;86.60;;;;;;4977625;28;103793;-73
2021/11/09 02:24:10;;;;;;;27.15;10.90;;;9.20;86.60;;;;;;4977156;28;88714;-73
2021/11/09 02:26:38;;;;;;;20.85;10.88;;;9.10;86.70;;;;;;4977016;28;88452;-73
2021/11/09 02:29:05;;;;;;;25.95;12.05;;;9.10;86.70;;;;;;4977103;28;91625;-74
2021/11/09 02:31:33;;;;;;;27.08;10.73;;;9.10;86.70;;;;;;4977078;28;89371;-73
2021/11/09 02:34:00;;;;;;;28.08;12.38;;;9.10;86.70;;;;;;4977332;28;89359;-73
2021/11/09 02:36:27;;;;;;;25.48;11.32;;;9.00;86.60;;;;;;4975532;28;89366;-73
2021/11/09 02:38:54;;;;;;;25.95;12.40;;;9.00;86.60;;;;;;4977199;28;88663;-73
2021/11/09 02:41:21;;;;;;;28.02;12.13;;;9.00;86.70;;;;;;4977274;28;89057;-73
2021/11/09 02:43:49;;;;;;;23.30;12.10;;;9.00;86.90;;;;;;4976937;28;88762;-73
2021/11/09 02:49:07;;;;;;;23.17;13.17;;;8.90;86.90;;;;;;4976781;28;89427;-74
2021/11/09 02:56:38;;;;;;;31.38;12.80;;;8.80;87.40;;;;;;4975282;28;88516;-73
2021/11/09 03:01:44;;;;;;;31.65;13.98;;;8.80;87.30;;;;;;4976534;28;89101;-73
2021/11/09 03:06:56;;;;;;;31.25;13.80;;;8.70;87.20;;;;;;4964608;28;89411;-73
2021/11/09 03:12:04;;;;;;;26.33;13.35;;;8.70;87.10;;;;;;4980198;28;88992;-74
2021/11/09 03:14:33;;;;;;;27.13;13.20;;;8.60;87.10;;;;;;4979767;28;88872;-73
2021/11/09 03:17:04;;;;;;;30.70;13.07;;;8.60;87.10;;;;;;4979756;28;103258;-73
2021/11/09 03:44:20;;;;;;;28.52;14.93;;;8.40;87.20;;;;;;4979424;28;89174;-74
2021/11/09 03:46:58;;;;;;;30.10;14.95;;;8.40;87.30;;;;;;4979619;28;88512;-73
2021/11/09 03:49:28;;;;;;;30.42;15.65;;;8.40;87.30;;;;;;4977856;28;89489;-74
2021/11/09 03:51:57;;;;;;;27.77;13.90;;;8.30;87.20;;;;;;4980040;28;88642;-73
2021/11/09 03:54:28;;;;;;;34.05;15.95;;;8.30;87.20;;;;;;4977885;28;90440;-73
2021/11/09 03:57:15;;;;;;;29.52;14.05;;;8.30;87.40;;;;;;4978623;28;89294;-73
2021/11/09 04:02:48;;;;;;;32.05;13.85;;;8.30;87.40;;;;;;4977095;28;88498;-73
2021/11/09 04:05:19;;;;;;;29.70;13.90;;;8.20;87.70;;;;;;4979474;28;90714;-73
2021/11/09 04:11:11;;;;;;;29.70;14.10;;;8.20;87.60;;;;;;4979497;28;88446;-73
2021/11/09 04:21:15;;;;;;;32.22;14.10;;;8.10;87.60;;;;;;4978022;28;89469;-73
2021/11/09 05:11:47;;;;;;;37.47;14.60;;;7.80;87.80;;;;;;4978435;28;88798;-73
2021/11/09 05:14:15;;;;;;;34.67;14.52;;;7.80;88.00;;;;;;4978360;28;88508;-74
2021/11/09 05:16:43;;;;;;;33.97;14.27;;;7.80;87.80;;;;;;4976752;28;92692;-73
2021/11/09 05:19:10;;;;;;;32.40;14.35;;;7.80;87.70;;;;;;4961151;28;89333;-73
2021/11/09 05:21:39;;;;;;;27.30;13.63;;;7.80;87.70;;;;;;4944226;28;96817;-74
2021/11/09 05:24:06;;;;;;;29.63;13.93;;;7.80;87.50;;;;;;4976798;28;89361;-73
2021/11/09 05:26:35;;;;;;;28.80;14.98;;;7.70;87.30;;;;;;4976313;28;89211;-73
2021/11/09 05:29:02;;;;;;;29.67;15.63;;;7.70;87.30;;;;;;4977926;28;88468;-73
2021/11/09 05:31:29;;;;;;;40.72;15.50;;;7.70;87.30;;;;;;4993240;28;89932;-73
2021/11/09 05:34:00;;;;;;;36.45;15.23;;;7.70;87.40;;;;;;4978019;28;88490;-73
2021/11/09 05:36:32;;;;;;;33.70;16.13;;;7.60;87.20;;;;;;4976896;28;88757;-71
2021/11/09 05:39:15;;;;;;;41.75;16.13;;;7.60;87.20;;;;;;4978096;28;89458;-71
2021/11/09 05:41:44;;;;;;;43.75;16.75;;;7.60;87.40;;;;;;4977839;28;89750;-71
2021/11/09 05:44:11;;;;;;;32.38;16.83;;;7.60;88.10;;;;;;4977469;28;94351;-71
2021/11/09 05:46:40;;;;;;;38.25;15.45;;;7.60;87.60;;;;;;4977843;28;90585;-71
2021/11/09 05:49:07;;;;;;;36.42;15.80;;;7.50;87.70;;;;;;4976441;28;92888;-71
2021/11/09 05:51:35;;;;;;;39.17;17.63;;;7.50;87.90;;;;;;4960474;28;89570;-71
2021/11/09 05:54:04;;;;;;;39.55;17.40;;;7.50;87.70;;;;;;4977288;28;96343;-71
2021/11/09 05:56:32;;;;;;;40.60;16.90;;;7.50;88.00;;;;;;4976333;28;89694;-71
2021/11/09 05:58:59;;;;;;;32.45;16.50;;;7.50;87.90;;;;;;4976304;28;89199;-71
2021/11/09 06:01:26;;;;;;;33.42;17.33;;;7.50;88.10;;;;;;4977617;28;88787;-71
2021/11/09 06:03:53;;;;;;;36.80;18.40;;;7.50;87.80;;;;;;4976418;28;88537;-70
2021/11/09 06:06:20;;;;;;;37.35;17.48;;;7.50;87.90;;;;;;4976154;28;89718;-71
2021/11/09 06:08:50;;;;;;;31.88;16.65;;;7.50;88.10;;;;;;4976400;28;89277;-70
2021/11/09 06:11:17;;;;;;;32.22;16.67;;;7.50;87.90;;;;;;4976042;28;88926;-71
2021/11/09 06:13:45;;;;;;;39.90;17.38;;;7.50;87.90;;;;;;4977319;28;88466;-71
2021/11/09 06:16:12;;;;;;;28.50;16.70;;;7.50;87.90;;;;;;4977411;28;89230;-71
2021/11/09 06:18:39;;;;;;;42.83;17.83;;;7.50;87.80;;;;;;4976218;28;89270;-70
2021/11/09 06:21:06;;;;;;;40.08;17.75;;;7.50;87.60;;;;;;4977183;28;88848;-72
2021/11/09 06:23:33;;;;;;;36.85;18.20;;;7.40;87.40;;;;;;4992669;28;90590;-70
2021/11/09 06:26:02;;;;;;;38.35;18.60;;;7.40;87.40;;;;;;4975670;28;88655;-70
2021/11/09 06:28:29;;;;;;;45.88;19.50;;;7.40;87.60;;;;;;4977279;28;89274;-71
2021/11/09 06:30:56;;;;;;;35.22;17.50;;;7.40;87.30;;;;;;4975667;28;91295;-70
2021/11/09 06:33:23;;;;;;;34.53;18.20;;;7.40;87.30;;;;;;4977646;28;88570;-70
2021/11/09 06:35:51;;;;;;;39.20;17.42;;;7.40;87.40;;;;;;4976960;28;89951;-70
2021/11/09 06:38:19;;;;;;;37.70;17.90;;;7.40;87.20;;;;;;4975309;28;95188;-70
2021/11/09 06:40:47;;;;;;;39.65;18.27;;;7.40;87.00;;;;;;4976976;28;88945;-70
2021/11/09 06:43:13;;;;;;;39.65;18.45;;;7.40;87.00;;;;;;4976873;28;88472;-70
2021/11/09 06:45:41;;;;;;;41.05;19.13;;;7.40;86.70;;;;;;4977161;28;88752;-70
2021/11/09 06:48:08;;;;;;;40.05;18.23;;;7.40;86.80;;;;;;4975625;28;89217;-70
2021/11/09 06:50:35;;;;;;;41.05;17.77;;;7.30;86.80;;;;;;4975809;28;88591;-70
2021/11/09 06:53:02;;;;;;;36.38;17.65;;;7.30;86.80;;;;;;4976951;28;88543;-70
2021/11/09 06:55:30;;;;;;;35.63;17.58;;;7.30;87.00;;;;;;4975264;28;100775;-70
2021/11/09 06:57:57;;;;;;;37.40;17.67;;;7.30;86.80;;;;;;4975510;28;90428;-71
2021/11/09 07:00:24;;;;;;;37.42;18.42;;;7.30;86.90;;;;;;4977138;28;88687;-70
2021/11/09 07:02:51;;;;;;;35.75;18.65;;;7.30;86.90;;;;;;4976637;28;88477;-70
2021/11/09 07:05:19;;;;;;;33.63;17.20;;;7.30;86.70;;;;;;4975611;28;88717;-71
2021/11/09 07:07:46;;;;;;;34.67;17.83;;;7.30;86.70;;;;;;4976744;28;89219;-70
2021/11/09 07:10:14;;;;;;;37.95;18.00;;;7.30;87.30;;;;;;4976757;28;88794;-70
2021/11/09 07:12:43;;;;;;;30.23;14.60;;;7.40;87.40;;;;;;4975801;28;88646;-71
2021/11/09 07:15:11;;;;;;;32.38;17.77;;;7.40;87.10;;;;;;4976606;28;89275;-70
2021/11/09 07:17:39;;;;;;;32.50;16.00;;;7.40;87.10;;;;;;4976986;28;89261;-70
2021/11/09 07:20:12;;;;;;;34.30;16.70;;;7.50;86.50;;;;;;4975861;28;107007;-70
2021/11/09 07:22:40;;;;;;;36.75;17.80;;;7.50;86.30;;;;;;4977219;28;88850;-70
2021/11/09 07:25:09;;;;;;;32.15;18.25;;;7.60;86.40;;;;;;4974686;28;89979;-70
2021/11/09 07:27:37;;;;;;;31.50;15.70;;;7.60;86.10;;;;;;4976569;28;89218;-70
2021/11/09 07:30:05;;;;;;;30.58;15.60;;;7.70;85.90;;;;;;4976114;28;89808;-70
2021/11/09 07:32:32;;;;;;;27.55;14.88;;;7.80;85.90;;;;;;4976565;28;89841;-70
2021/11/09 07:34:59;;;;;;;25.73;14.57;;;7.90;85.40;;;;;;4976424;28;88664;-70
2021/11/09 07:37:28;;;;;;;28.52;15.43;;;8.00;84.70;;;;;;4976491;28;90304;-70
2021/11/09 07:39:55;;;;;;;34.80;16.42;;;8.00;84.90;;;;;;4976332;28;88965;-70
2021/11/09 07:42:22;;;;;;;32.30;15.65;;;8.10;84.50;;;;;;4957687;28;110036;-70
2021/11/09 07:44:51;;;;;;;29.27;14.93;;;8.20;84.40;;;;;;4975060;28;88687;-70
2021/11/09 07:47:22;;;;;;;35.45;14.77;;;8.20;84.40;;;;;;4975320;28;89325;-71
2021/11/09 07:49:49;;;;;;;32.25;16.25;;;8.30;84.10;;;;;;4976588;28;88871;-70
2021/11/09 07:52:17;;;;;;;30.75;17.08;;;8.40;83.90;;;;;;4979432;28;88542;-70
2021/11/09 07:54:47;;;;;;;33.83;16.10;;;8.40;83.70;;;;;;4961814;28;90661;-70
2021/11/09 07:57:16;;;;;;;32.17;17.08;;;8.50;83.50;;;;;;4979131;28;89294;-70
2021/11/09 08:02:25;;;;;;;30.38;15.75;;;8.50;83.10;;;;;;4979255;28;88462;-70
2021/11/09 08:05:00;;;;;;;32.25;15.48;;;8.60;83.00;;;;;;4979627;28;90216;-70
2021/11/09 08:07:32;;;;;;;31.00;14.07;;;8.60;82.50;;;;;;4979408;28;88484;-70
2021/11/09 08:10:00;;;;;;;34.78;15.70;;;8.60;82.70;;;;;;4962534;28;88689;-70
2021/11/09 08:12:27;;;;;;;27.17;14.68;;;8.70;82.70;;;;;;4979532;28;88539;-71
2021/11/09 08:14:54;;;;;;;24.58;14.88;;;8.60;82.90;;;;;;4979305;28;88552;-70
2021/11/09 08:17:21;;;;;;;27.10;14.93;;;8.70;83.00;;;;;;4978986;28;89125;-70
2021/11/09 08:19:48;;;;;;;32.58;15.88;;;8.70;83.10;;;;;;4977806;28;88798;-70
2021/11/09 08:22:15;;;;;;;31.63;15.93;;;8.70;82.80;;;;;;4975022;28;88612;-70
2021/11/09 08:24:43;;;;;;;32.17;16.40;;;8.80;82.50;;;;;;4968874;28;95800;-70
2021/11/09 08:27:11;;;;;;;33.47;14.95;;;8.80;82.30;;;;;;4978707;28;89246;-70
2021/11/09 08:29:39;;;;;;;26.98;15.48;;;8.90;82.30;;;;;;4978916;28;88780;-70
2021/11/09 08:32:10;;;;;;;32.25;16.83;;;8.90;83.10;;;;;;4960586;28;106177;-71
2021/11/09 08:34:37;;;;;;;28.27;14.77;;;9.00;82.40;;;;;;4979080;28;88728;-70
2021/11/09 08:37:05;;;;;;;26.17;15.30;;;9.00;82.20;;;;;;4978836;28;89271;-70
2021/11/09 08:39:39;;;;;;;27.58;14.20;;;9.10;82.60;;;;;;4978720;28;88762;-70
2021/11/09 08:42:13;;;;;;;31.17;16.02;;;9.20;82.30;;;;;;4961030;28;89493;-70
2021/11/09 08:44:58;;;;;;;25.58;14.70;;;9.30;82.10;;;;;;4978838;28;92680;-71
2021/11/09 08:47:29;;;;;;;29.77;14.88;;;9.30;82.50;;;;;;4978636;28;89443;-70
2021/11/09 08:49:58;;;;;;;31.20;15.25;;;9.40;81.70;;;;;;4977325;28;89076;-71
2021/11/09 08:52:27;;;;;;;30.58;16.48;;;9.40;81.90;;;;;;4978325;28;88405;-70
2021/11/09 08:55:13;;;;;;;25.88;15.07;;;9.50;81.50;;;;;;4978763;28;88720;-70
2021/11/09 08:58:02;;;;;;;28.40;15.30;;;9.60;81.00;;;;;;4978641;28;89124;-70
2021/11/09 09:06:00;;;;;;;31.92;15.27;;;9.80;81.40;;;;;;4977494;28;88622;-70
2021/11/09 09:08:27;;;;;;;47.55;23.73;;;9.80;80.60;;;;;;4978327;28;88955;-71
2021/11/09 09:10:54;;;;;;;32.10;15.70;;;9.90;80.60;;;;;;4978233;28;88746;-70
2021/11/09 09:13:21;;;;;;;28.30;17.20;;;10.00;80.30;;;;;;4977688;28;103140;-70
2021/11/09 09:15:48;;;;;;;31.05;16.23;;;10.00;80.50;;;;;;4976823;28;91317;-71
2021/11/09 09:18:17;;;;;;;28.23;14.23;;;10.20;80.10;;;;;;4976733;28;90415;-70
2021/11/09 09:20:52;;;;;;;30.77;15.00;;;10.20;79.80;;;;;;4978244;28;88658;-71
2021/11/09 09:23:26;;;;;;;29.38;15.25;;;10.30;79.50;;;;;;4977742;28;90275;-70
2021/11/09 09:28:45;;;;;;;24.67;14.80;;;10.40;79.40;;;;;;4976509;28;89320;-70
2021/11/09 09:55:55;;;;;;;28.98;12.82;;;11.20;76.90;;;;;;4976660;28;89318;-70
2021/11/09 09:58:22;;;;;;;36.88;17.63;;;11.20;76.30;;;;;;4977511;28;89482;-70
2021/11/09 10:00:50;;;;;;;52.95;24.08;;;11.30;76.10;;;;;;4975617;28;103786;-70
2021/11/09 10:03:17;;;;;;;33.40;22.60;;;11.40;76.20;;;;;;4977262;28;88693;-70
2021/11/09 10:05:44;;;;;;;28.92;13.73;;;11.50;75.80;;;;;;4977653;28;88546;-71
2021/11/09 10:08:18;;;;;;;32.78;15.43;;;11.50;75.60;;;;;;4977547;28;88792;-70
2021/11/09 10:10:46;;;;;;;31.58;14.75;;;11.60;75.70;;;;;;4977769;28;89147;-72
2021/11/09 10:13:20;;;;;;;26.02;14.25;;;11.60;75.40;;;;;;4976917;28;88443;-72
2021/11/09 10:15:49;;;;;;;30.27;14.02;;;11.70;75.30;;;;;;4977680;28;88435;-72
2021/11/09 10:18:20;;;;;;;29.50;14.00;;;11.70;74.70;;;;;;4977069;28;88691;-71
2021/11/09 10:20:56;;;;;;;25.65;14.35;;;11.80;74.40;;;;;;4976588;28;88467;-71
2021/11/09 10:23:29;;;;;;;29.00;13.75;;;11.80;74.90;;;;;;4977294;28;88723;-71
2021/11/09 10:26:07;;;;;;;26.93;14.63;;;11.90;74.10;;;;;;4975884;28;90577;-71
2021/11/09 10:28:34;;;;;;;27.75;14.52;;;11.90;74.40;;;;;;4975489;28;90472;-71
2021/11/09 10:31:07;;;;;;;32.85;14.15;;;11.80;74.30;;;;;;4976771;28;105446;-72
2021/11/09 10:33:42;;;;;;;22.92;13.05;;;11.90;74.00;;;;;;4977057;28;88660;-71
2021/11/09 10:36:21;;;;;;;29.08;14.38;;;11.90;73.80;;;;;;4977260;28;88596;-71
2021/11/09 10:38:50;;;;;;;33.60;13.88;;;12.00;73.50;;;;;;4976207;28;88563;-71
2021/11/09 10:41:18;;;;;;;30.88;14.48;;;12.00;73.60;;;;;;4976833;28;89368;-71
2021/11/09 10:43:47;;;;;;;30.42;14.15;;;12.00;73.30;;;;;;4976752;28;88819;-72
2021/11/09 10:46:29;;;;;;;28.92;14.38;;;12.10;73.20;;;;;;4975803;28;89245;-71
2021/11/09 10:48:58;;;;;;;23.58;12.75;;;12.10;73.10;;;;;;4976926;28;88628;-72
2021/11/09 10:51:51;;;;;;;29.50;13.25;;;12.10;73.10;;;;;;4976837;28;89258;-71
2021/11/09 10:54:56;;;;;;;23.57;13.03;;;12.20;73.10;;;;;;4976981;28;88922;-71
2021/11/09 10:57:39;;;;;;;23.73;12.77;;;12.20;73.70;;;;;;4965385;28;88591;-72
2021/11/09 11:05:23;;;;;;;20.95;12.43;;;12.40;72.60;;;;;;4975475;28;88863;-72
2021/11/09 11:07:58;;;;;;;25.45;12.77;;;12.50;72.50;;;;;;4943038;28;89471;-71
2021/11/09 11:10:32;;;;;;;24.20;12.57;;;12.50;71.90;;;;;;4976839;28;88963;-72
2021/11/09 11:13:24;;;;;;;22.75;12.70;;;12.60;71.30;;;;;;4977272;28;89231;-71
2021/11/09 11:16:05;;;;;;;25.50;12.13;;;12.60;71.20;;;;;;4976672;28;89370;-72
2021/11/09 11:18:41;;;;;;;27.83;12.63;;;12.70;71.20;;;;;;4975643;28;89042;-72
2021/11/09 11:21:10;;;;;;;27.70;12.50;;;12.70;71.00;;;;;;4976644;28;89365;-71
2021/11/09 11:23:39;;;;;;;27.58;12.73;;;12.80;71.30;;;;;;4975804;28;105893;-71
2021/11/09 11:26:08;;;;;;;26.35;13.38;;;12.80;70.50;;;;;;4977468;28;88873;-72
2021/11/09 11:28:38;;;;;;;25.80;12.70;;;12.90;71.00;;;;;;4979808;28;88910;-72
2021/11/09 11:31:06;;;;;;;25.30;13.23;;;13.00;70.60;;;;;;4979932;28;88601;-71
2021/11/09 11:33:34;;;;;;;24.90;13.18;;;13.00;69.70;;;;;;4978498;28;90323;-72
2021/11/09 11:36:02;;;;;;;26.40;12.65;;;13.00;69.70;;;;;;4979710;28;90582;-71
2021/11/09 11:38:31;;;;;;;28.70;13.88;;;13.10;69.50;;;;;;4978657;28;89336;-72
2021/11/09 11:41:00;;;;;;;28.08;18.40;;;13.10;69.30;;;;;;4979594;28;88587;-72
2021/11/09 11:43:42;;;;;;;23.63;14.05;;;13.20;69.20;;;;;;4979294;28;89253;-72
2021/11/09 11:46:29;;;;;;;27.60;13.15;;;13.20;69.00;;;;;;4979792;28;88835;-72
2021/11/09 11:48:57;;;;;;;23.60;12.80;;;13.20;69.40;;;;;;4979731;28;91902;-72
2021/11/09 11:51:29;;;;;;;23.20;12.05;;;13.30;69.20;;;;;;4978113;28;88923;-71
2021/11/09 11:53:57;;;;;;;25.88;12.95;;;13.40;68.90;;;;;;4978700;28;89358;-72
2021/11/09 11:56:43;;;;;;;22.50;12.07;;;13.40;68.90;;;;;;4978920;28;104690;-72
2021/11/09 11:59:22;;;;;;;21.65;11.13;;;13.60;68.90;;;;;;4979565;28;88893;-72
2021/11/09 12:01:56;;;;;;;19.33;12.77;;;13.70;67.80;;;;;;4978856;28;88549;-72
2021/11/09 12:04:44;;;;;;;20.48;11.18;;;13.80;68.20;;;;;;4978515;28;89309;-71
2021/11/09 12:07:19;;;;;;;21.20;11.27;;;13.90;68.00;;;;;;4977669;28;89935;-71
2021/11/09 12:09:49;;;;;;;19.05;10.25;;;13.90;67.70;;;;;;4977528;28;88381;-71
2021/11/09 12:12:19;;;;;;;23.02;11.77;;;13.90;67.50;;;;;;4978834;28;91663;-71
2021/11/09 12:14:59;;;;;;;23.65;12.00;;;14.00;67.40;;;;;;4979192;28;88382;-71
2021/11/09 12:17:34;;;;;;;19.52;11.35;;;14.10;67.10;;;;;;4979313;28;94630;-71
2021/11/09 12:20:07;;;;;;;27.90;11.98;;;14.00;66.50;;;;;;4979011;28;88928;-72
2021/11/09 12:22:51;;;;;;;22.42;12.60;;;14.10;66.90;;;;;;4977978;28;89109;-70
2021/11/09 12:25:36;;;;;;;24.40;10.85;;;14.10;66.20;;;;;;4977789;28;90594;-70
2021/11/09 12:28:08;;;;;;;21.48;10.85;;;14.10;66.40;;;;;;4977840;28;88825;-70
2021/11/09 12:30:35;;;;;;;24.65;11.73;;;14.10;66.60;;;;;;4977727;28;89489;-70
2021/11/09 12:33:27;;;;;;;27.33;12.60;;;14.10;66.60;;;;;;4977200;28;97389;-70
2021/11/09 12:36:10;;;;;;;20.80;10.98;;;14.10;67.10;;;;;;4978199;28;89151;-70
2021/11/09 12:38:41;;;;;;;23.85;12.18;;;14.10;66.60;;;;;;4976547;28;88771;-70
2021/11/09 12:41:20;;;;;;;20.65;10.90;;;14.10;66.40;;;;;;4975003;28;88745;-71
2021/11/09 12:43:47;;;;;;;26.27;13.55;;;14.10;66.50;;;;;;4978450;28;89544;-70
2021/11/09 12:46:39;;;;;;;59.53;27.23;;;14.10;66.50;;;;;;4978983;28;89226;-71
2021/11/09 12:49:16;;;;;;;36.30;18.90;;;14.20;66.20;;;;;;4978986;28;90059;-70
2021/11/09 12:51:48;;;;;;;81.10;43.67;;;14.10;66.50;;;;;;4978617;28;88902;-70
2021/11/09 12:54:24;;;;;;;35.97;18.17;;;14.20;65.70;;;;;;4961059;28;89848;-70
2021/11/09 12:56:56;;;;;;;35.30;18.90;;;14.20;66.00;;;;;;4978824;28;89179;-71
2021/11/09 13:02:15;;;;;;;25.75;15.35;;;14.20;66.20;;;;;;4977179;28;89350;-71
2021/11/09 13:09:46;;;;;;;21.85;10.98;;;14.20;65.60;;;;;;4978234;28;88477;-70
2021/11/09 13:12:17;;;;;;;24.42;11.82;;;14.20;65.60;;;;;;4978636;28;88407;-70
2021/11/09 13:14:46;;;;;;;22.15;10.70;;;14.20;65.70;;;;;;4978280;28;89191;-71
2021/11/09 13:18:08;;;;;;;24.80;11.18;;;14.20;65.60;;;;;;4978226;28;89366;-71
2021/11/09 13:23:02;;;;;;;23.23;10.25;;;14.20;64.90;;;;;;4978324;28;88556;-70
2021/11/09 13:25:35;;;;;;;19.63;9.93;;;14.30;65.70;;;;;;4977244;28;88727;-70
2021/11/09 13:28:04;;;;;;;24.77;10.57;;;14.30;65.10;;;;;;4977789;28;88464;-70
2021/11/09 13:30:52;;;;;;;22.17;11.15;;;14.30;64.80;;;;;;4978040;28;88825;-70
2021/11/09 13:33:21;;;;;;;20.42;10.77;;;14.30;65.10;;;;;;4978578;28;88852;-70
2021/11/09 13:35:48;;;;;;;25.42;11.63;;;14.30;65.10;;;;;;4976603;28;89992;-70
2021/11/09 13:38:33;;;;;;;20.15;9.65;;;14.20;65.00;;;;;;4977993;28;89274;-70
2021/11/09 13:41:11;;;;;;;19.35;9.60;;;14.20;65.10;;;;;;4976331;28;89814;-70
2021/11/09 13:43:42;;;;;;;21.35;9.88;;;14.10;64.80;;;;;;4977447;28;98408;-70
2021/11/09 13:46:16;;;;;;;21.80;10.63;;;14.10;64.90;;;;;;4978485;28;90497;-70
2021/11/09 13:48:47;;;;;;;;;;;14.00;64.80;;;;;;4977536;28;89365;-70
2021/11/09 13:51:17;;;;;;;21.02;9.32;;;13.90;64.80;;;;;;4978291;28;91458;-70
2021/11/09 13:53:48;;;;;;;23.55;12.18;;;13.80;65.70;;;;;;4978393;28;87929;-70
2021/11/09 13:56:23;;;;;;;29.85;14.65;;;13.90;65.20;;;;;;4973918;28;89413;-70
2021/11/09 13:59:21;;;;;;;28.35;13.75;;;14.00;65.50;;;;;;4964058;28;88914;-71
2021/11/09 14:02:12;;;;;;;23.90;10.27;;;14.00;65.40;;;;;;4972875;28;90365;-70
2021/11/09 14:17:40;;;;;;;445.23;195.55;;;14.00;65.50;;;;;;4958268;28;88807;-70
2021/11/09 14:20:13;;;;;;;35.05;22.30;;;14.00;65.50;;;;;;4954760;28;104093;-69
2021/11/09 14:22:45;;;;;;;24.95;11.52;;;14.00;65.70;;;;;;4955521;28;92105;-70
2021/11/09 14:25:16;;;;;;;19.17;10.60;;;13.90;65.80;;;;;;4958097;28;88461;-70
2021/11/09 14:27:46;;;;;;;20.45;9.95;;;13.90;65.90;;;;;;4957870;28;88449;-70
2021/11/09 14:30:23;;;;;;;17.35;9.93;;;13.90;66.00;;;;;;4956842;28;89653;-70
2021/11/09 14:33:03;;;;;;;17.90;9.93;;;13.90;65.70;;;;;;4957256;28;88082;-70
2021/11/09 14:35:35;;;;;;;23.33;11.65;;;14.00;65.80;;;;;;4958572;28;88090;-70
2021/11/09 14:38:11;;;;;;;21.17;10.13;;;14.00;65.70;;;;;;4956029;28;91247;-70
2021/11/09 14:40:53;;;;;;;24.40;10.13;;;13.90;65.70;;;;;;4956210;28;90384;-70
2021/11/09 14:43:28;;;;;;;21.40;9.95;;;13.90;65.60;;;;;;4957095;28;88837;-70
2021/11/09 14:46:07;;;;;;;21.42;9.73;;;13.90;66.10;;;;;;4969147;28;88227;-70
2021/11/09 14:48:51;;;;;;;25.55;9.63;;;13.80;65.80;;;;;;4977286;28;93096;-70
2021/11/09 14:56:39;;;;;;;19.08;8.43;;;13.70;66.00;;;;;;4976492;28;89356;-70
2021/11/09 14:59:07;;;;;;;15.65;7.40;;;13.70;66.20;;;;;;4977960;28;91599;-70
2021/11/09 15:01:41;;;;;;;23.00;9.15;;;13.60;66.00;;;;;;4979935;28;89578;-70
2021/11/09 15:04:20;;;;;;;22.30;8.70;;;13.50;65.90;;;;;;4981287;28;87919;-70
2021/11/09 15:07:05;;;;;;;19.20;8.55;;;13.40;66.20;;;;;;4981622;28;88193;-70
2021/11/09 15:12:32;;;;;;;24.42;8.43;;;13.30;66.30;;;;;;4981127;28;88638;-70
2021/11/09 15:26:12;;;;;;;19.25;8.23;;;13.10;67.20;;;;;;4995877;28;88090;-70
2021/11/09 15:39:19;;;;;;;13.67;7.00;;;13.00;67.40;;;;;;4979092;28;89299;-70
2021/11/09 15:41:46;;;;;;;21.90;7.20;;;13.00;67.50;;;;;;4978943;28;90494;-69
2021/11/09 15:44:16;;;;;;;16.92;8.02;;;13.00;67.60;;;;;;4979827;28;89158;-70
2021/11/09 15:46:43;;;;;;;16.85;7.63;;;12.90;67.70;;;;;;4980522;28;88002;-70
2021/11/09 15:49:11;;;;;;;18.60;7.88;;;12.90;67.70;;;;;;4978492;28;93035;-70
2021/11/09 15:51:40;;;;;;;22.25;8.18;;;12.90;67.70;;;;;;4979637;28;88813;-70
2021/11/09 15:54:12;;;;;;;18.05;7.97;;;12.80;67.70;;;;;;4979021;28;88529;-70
2021/11/09 15:56:39;;;;;;;16.33;7.97;;;12.80;68.10;;;;;;4979158;28;88409;-70
2021/11/09 15:59:09;;;;;;;21.23;8.38;;;12.80;67.60;;;;;;4962922;28;89526;-70
2021/11/09 16:01:39;;;;;;;17.95;7.43;;;12.80;67.80;;;;;;4978811;28;89752;-70
2021/11/09 16:04:09;;;;;;;19.38;7.15;;;12.70;68.00;;;;;;4980308;28;88587;-70
2021/11/09 16:06:37;;;;;;;22.42;8.43;;;12.70;68.20;;;;;;4979937;28;88703;-70
2021/11/09 16:09:08;;;;;;;17.85;7.63;;;12.70;68.10;;;;;;4979759;28;88128;-70
2021/11/09 16:11:36;;;;;;;17.80;7.82;;;12.70;68.00;;;;;;4979595;28;88642;-70